createdAt,value
2018-06-25T00:00:12.926Z,71.99
2018-06-25T00:02:41.963Z,71.70
2018-06-25T00:05:10.953Z,72.12
2018-06-25T00:07:39.936Z,71.50
2018-06-25T00:10:08.964Z,71.46
2018-06-25T00:12:37.993Z,72.23
2018-06-25T00:15:07.104Z,71.58
2018-06-25T00:17:36.061Z,71.67
2018-06-25T00:20:05.187Z,72.53
2018-06-25T00:22:34.151Z,72.33
2018-06-25T00:25:03.141Z,72.46
2018-06-25T00:27:32.129Z,72.50
2018-06-25T00:30:01.230Z,72.40
2018-06-25T00:32:30.277Z,71.81
2018-06-25T00:34:59.252Z,71.51
2018-06-25T00:37:28.272Z,71.42
2018-06-25T00:39:57.225Z,71.95
2018-06-25T00:42:26.288Z,71.62
2018-06-25T00:44:55.328Z,71.88
2018-06-25T00:47:24.311Z,72.81
2018-06-25T00:49:53.284Z,73.27
2018-06-25T00:52:22.260Z,73.02
2018-06-25T00:54:51.243Z,72.15
2018-06-25T00:57:20.256Z,72.79
2018-06-25T00:59:53.347Z,73.02
2018-06-25T01:02:22.756Z,73.38
2018-06-25T01:04:52.629Z,72.72
2018-06-25T01:07:22.090Z,72.51
2018-06-25T01:09:51.515Z,72.78
2018-06-25T01:12:20.524Z,71.83
2018-06-25T01:14:50.920Z,71.72
2018-06-25T01:17:19.984Z,71.40
2018-06-25T01:19:49.700Z,71.44
2018-06-25T01:22:18.692Z,73.98
2018-06-25T01:24:47.670Z,73.87
2018-06-25T01:27:16.675Z,70.95
2018-06-25T01:29:45.661Z,73.66
2018-06-25T01:32:14.641Z,74.95
2018-06-25T01:34:43.637Z,75.32
2018-06-25T01:37:12.653Z,75.13
2018-06-25T01:39:41.631Z,76.12
2018-06-25T01:42:10.608Z,76.05
2018-06-25T01:44:39.656Z,74.97
2018-06-25T01:47:08.719Z,74.34
2018-06-25T01:49:37.788Z,75.09
2018-06-25T01:52:07.399Z,74.58
2018-06-25T01:54:37.677Z,75.09
2018-06-25T01:57:07.585Z,75.21
2018-06-25T01:59:36.665Z,75.29
2018-06-25T02:02:05.715Z,75.40
2018-06-25T02:04:35.742Z,74.88
2018-06-25T02:07:04.741Z,75.09
2018-06-25T02:09:33.716Z,75.02
2018-06-25T02:12:02.696Z,75.09
2018-06-25T02:14:31.687Z,74.79
2018-06-25T02:17:00.896Z,75.57
2018-06-25T02:19:29.860Z,74.88
2018-06-25T02:21:58.827Z,74.70
2018-06-25T02:24:27.912Z,75.15
2018-06-25T02:26:56.908Z,74.55
2018-06-25T02:29:25.977Z,74.84
2018-06-25T02:31:56.847Z,75.16
2018-06-25T02:34:25.836Z,75.65
2018-06-25T02:36:55.009Z,76.21
2018-06-25T02:39:24.137Z,76.18
2018-06-25T02:41:53.800Z,76.51
2018-06-25T02:44:22.975Z,77.54
2018-06-25T02:46:53.057Z,78.58
2018-06-25T02:49:22.144Z,78.34
2018-06-25T02:51:51.213Z,78.51
2018-06-25T02:54:20.303Z,78.89
2018-06-25T02:56:49.328Z,78.80
2018-06-25T02:59:18.531Z,79.14
2018-06-25T03:01:47.493Z,79.01
2018-06-25T03:04:16.468Z,78.72
2018-06-25T03:06:46.013Z,79.81
2018-06-25T03:09:15.065Z,79.46
2018-06-25T03:11:44.020Z,79.57
2018-06-25T03:14:13.020Z,79.60
2018-06-25T03:16:42.015Z,79.65
2018-06-25T03:19:11.101Z,79.55
2018-06-25T03:21:40.324Z,79.61
2018-06-25T03:24:09.300Z,80.02
2018-06-25T03:26:38.273Z,81.12
2018-06-25T03:29:07.355Z,80.89
2018-06-25T03:31:36.347Z,79.92
2018-06-25T03:34:05.377Z,79.24
2018-06-25T03:36:34.387Z,78.98
2018-06-25T03:39:03.915Z,78.93
2018-06-25T03:41:32.867Z,78.78
2018-06-25T03:44:01.853Z,79.37
2018-06-25T03:46:30.895Z,78.69
2018-06-25T03:48:59.960Z,78.91
2018-06-25T03:51:29.920Z,79.80
2018-06-25T03:53:58.876Z,78.04
2018-06-25T03:56:27.924Z,77.56
2018-06-25T03:58:56.907Z,77.94
2018-06-25T04:01:25.948Z,78.31
2018-06-25T04:03:55.013Z,79.87
2018-06-25T04:06:24.092Z,79.63
2018-06-25T04:08:53.093Z,79.72
2018-06-25T04:11:22.096Z,79.23
2018-06-25T04:13:51.975Z,78.52
2018-06-25T04:16:20.947Z,77.71
2018-06-25T04:19:05.183Z,77.24
2018-06-25T04:21:37.380Z,76.59
2018-06-25T04:24:06.668Z,75.45
2018-06-25T04:26:35.648Z,74.99
2018-06-25T04:29:04.733Z,75.69
2018-06-25T04:31:34.039Z,74.33
2018-06-25T04:34:03.392Z,74.37
2018-06-25T04:36:32.825Z,74.47
2018-06-25T04:39:02.308Z,74.90
2018-06-25T04:41:31.408Z,74.57
2018-06-25T04:44:00.610Z,74.32
2018-06-25T04:46:29.844Z,75.09
2018-06-25T04:48:58.868Z,76.71
2018-06-25T04:51:27.828Z,78.16
2018-06-25T04:53:56.864Z,78.21
2018-06-25T04:56:25.822Z,78.85
2018-06-25T04:58:54.802Z,78.08
2018-06-25T05:01:23.838Z,78.47
2018-06-25T05:03:52.807Z,77.73
2018-06-25T05:06:21.935Z,75.72
2018-06-25T05:08:50.991Z,73.51
2018-06-25T05:11:19.972Z,73.61
2018-06-25T05:13:49.037Z,73.22
2018-06-25T05:16:18.065Z,73.04
2018-06-25T05:18:47.117Z,71.70
2018-06-25T05:21:16.104Z,71.65
2018-06-25T05:23:45.124Z,69.91
2018-06-25T05:26:14.149Z,68.88
2018-06-25T05:28:43.131Z,68.28
2018-06-25T05:31:12.101Z,68.65
2018-06-25T05:33:41.115Z,68.08
2018-06-25T05:36:10.684Z,68.49
2018-06-25T05:38:39.673Z,67.68
2018-06-25T05:41:08.725Z,67.41
2018-06-25T05:43:37.762Z,66.50
2018-06-25T05:46:06.786Z,65.24
2018-06-25T05:48:35.786Z,64.54
2018-06-25T05:51:04.861Z,65.31
2018-06-25T05:53:34.057Z,63.99
2018-06-25T05:56:03.122Z,63.25
2018-06-25T05:58:32.104Z,62.63
2018-06-25T06:01:01.181Z,61.73
2018-06-25T06:03:30.196Z,62.82
2018-06-25T06:05:59.216Z,61.43
2018-06-25T06:08:28.262Z,59.72
2018-06-25T06:10:57.269Z,59.07
2018-06-25T06:13:26.256Z,59.46
2018-06-25T06:15:55.244Z,58.69
2018-06-25T06:18:24.276Z,59.53
2018-06-25T06:20:53.344Z,60.36
2018-06-25T06:23:22.505Z,58.63
2018-06-25T06:25:51.541Z,58.07
2018-06-25T06:28:20.517Z,57.89
2018-06-25T06:30:49.550Z,58.67
2018-06-25T06:33:18.536Z,59.45
2018-06-25T06:35:47.652Z,58.25
2018-06-25T06:38:16.639Z,56.81
2018-06-25T06:40:45.668Z,57.07
2018-06-25T06:43:14.750Z,57.45
2018-06-25T06:45:43.717Z,55.25
2018-06-25T06:48:12.832Z,54.01
2018-06-25T06:50:41.866Z,51.33
2018-06-25T06:53:10.832Z,52.19
2018-06-25T06:55:40.698Z,50.58
2018-06-25T06:58:09.696Z,51.25
2018-06-25T07:00:38.788Z,53.22
2018-06-25T07:03:07.765Z,51.04
2018-06-25T07:05:36.797Z,50.37
2018-06-25T07:08:05.824Z,52.82
2018-06-25T07:10:34.876Z,53.56
2018-06-25T07:13:03.908Z,50.54
2018-06-25T07:15:32.963Z,49.91
2018-06-25T07:18:01.960Z,49.72
2018-06-25T07:20:30.985Z,48.87
2018-06-25T07:22:59.980Z,48.63
2018-06-25T07:25:29.044Z,49.11
2018-06-25T07:27:58.028Z,47.98
2018-06-25T07:30:26.991Z,46.54
2018-06-25T07:32:55.989Z,48.59
2018-06-25T07:35:25.000Z,47.01
2018-06-25T07:37:53.988Z,44.74
2018-06-25T07:40:23.021Z,43.50
2018-06-25T07:42:52.037Z,44.88
2018-06-25T07:45:21.012Z,45.01
2018-06-25T07:47:50.143Z,43.67
2018-06-25T07:50:19.192Z,45.27
2018-06-25T07:52:48.172Z,37.82
2018-06-25T07:55:17.156Z,38.65
2018-06-25T07:57:46.143Z,44.03
2018-06-25T08:00:15.157Z,38.60
2018-06-25T08:02:44.219Z,40.69
2018-06-25T08:05:13.229Z,38.90
2018-06-25T08:07:42.232Z,38.35
2018-06-25T08:10:11.312Z,37.38
2018-06-25T08:12:40.465Z,35.27
2018-06-25T08:15:09.685Z,34.57
2018-06-25T08:17:38.635Z,33.29
2018-06-25T08:20:07.677Z,35.37
2018-06-25T08:22:36.680Z,35.68
2018-06-25T08:25:05.673Z,38.87
2018-06-25T08:27:34.639Z,40.82
2018-06-25T08:30:03.784Z,41.69
2018-06-25T08:32:32.808Z,42.04
2018-06-25T08:35:01.927Z,41.68
2018-06-25T08:37:30.989Z,42.75
2018-06-25T08:40:00.059Z,43.34
2018-06-25T08:42:29.004Z,41.46
2018-06-25T08:44:58.045Z,42.61
2018-06-25T08:47:27.069Z,40.73
2018-06-25T08:49:56.124Z,37.69
2018-06-25T08:52:25.147Z,36.73
2018-06-25T08:54:54.149Z,38.10
2018-06-25T08:57:23.176Z,36.60
2018-06-25T08:59:52.176Z,38.74
2018-06-25T09:02:21.123Z,36.86
2018-06-25T09:04:50.189Z,37.53
2018-06-25T09:07:19.192Z,37.35
2018-06-25T09:09:48.239Z,38.04
2018-06-25T09:12:17.295Z,40.18
2018-06-25T09:14:46.284Z,39.54
2018-06-25T09:17:15.254Z,39.57
2018-06-25T09:19:44.253Z,38.46
2018-06-25T09:22:13.293Z,39.44
2018-06-25T09:24:42.321Z,41.99
2018-06-25T09:27:11.283Z,40.20
2018-06-25T09:29:40.268Z,41.80
2018-06-25T09:32:09.372Z,37.29
2018-06-25T09:34:43.500Z,37.46
2018-06-25T09:37:12.515Z,37.48
2018-06-25T09:39:41.491Z,38.69
2018-06-25T09:42:10.528Z,40.45
2018-06-25T09:44:39.559Z,37.29
2018-06-25T09:47:08.649Z,38.82
2018-06-25T09:49:37.712Z,36.79
2018-06-25T09:52:06.723Z,35.18
2018-06-25T09:54:35.802Z,35.52
2018-06-25T09:57:04.893Z,34.78
2018-06-25T09:59:33.881Z,36.00
2018-06-25T10:02:02.845Z,33.75
2018-06-25T10:04:31.848Z,33.34
2018-06-25T10:07:01.336Z,32.73
2018-06-25T10:09:30.404Z,34.23
2018-06-25T10:11:59.405Z,33.72
2018-06-25T10:14:28.449Z,34.67
2018-06-25T10:16:57.472Z,35.80
2018-06-25T10:19:26.504Z,34.50
2018-06-25T10:21:55.485Z,33.90
2018-06-25T10:24:24.452Z,35.40
2018-06-25T10:26:53.451Z,36.09
2018-06-25T10:29:22.456Z,34.55
2018-06-25T10:31:51.699Z,34.28
2018-06-25T10:34:20.844Z,31.98
2018-06-25T10:36:49.807Z,33.86
2018-06-25T10:39:18.875Z,32.24
2018-06-25T10:41:47.830Z,33.08
2018-06-25T10:44:16.804Z,32.16
2018-06-25T10:46:45.815Z,31.59
2018-06-25T10:49:14.815Z,34.47
2018-06-25T10:51:44.069Z,32.12
2018-06-25T10:54:13.231Z,32.31
2018-06-25T10:56:42.512Z,33.93
2018-06-25T10:59:11.504Z,34.68
2018-06-25T11:01:40.627Z,34.57
2018-06-25T11:04:09.797Z,34.91
2018-06-25T11:06:38.885Z,34.45
2018-06-25T11:09:10.328Z,33.41
2018-06-25T11:11:39.380Z,32.84
2018-06-25T11:14:08.369Z,33.28
2018-06-25T11:16:37.528Z,33.58
2018-06-25T11:19:06.575Z,34.50
2018-06-25T11:21:36.201Z,35.32
2018-06-25T11:24:05.260Z,35.42
2018-06-25T11:26:34.240Z,33.49
2018-06-25T11:29:03.204Z,35.54
2018-06-25T11:31:32.180Z,36.06
2018-06-25T11:34:01.223Z,36.79
2018-06-25T11:36:30.269Z,37.88
2018-06-25T11:38:59.298Z,34.51
2018-06-25T11:41:28.361Z,35.65
2018-06-25T11:43:57.404Z,35.66
2018-06-25T11:46:26.472Z,37.22
2018-06-25T11:48:55.429Z,38.12
2018-06-25T11:51:24.480Z,38.41
2018-06-25T11:53:53.523Z,39.09
2018-06-25T11:56:22.498Z,38.88
2018-06-25T11:58:51.537Z,37.83
2018-06-25T12:01:20.580Z,39.25
2018-06-25T12:03:49.544Z,39.77
2018-06-25T12:06:18.524Z,40.65
2018-06-25T12:08:47.552Z,41.10
2018-06-25T12:11:16.528Z,39.04
2018-06-25T12:13:45.572Z,39.15
2018-06-25T12:16:14.705Z,39.56
2018-06-25T12:18:43.783Z,39.74
2018-06-25T12:21:12.759Z,39.76
2018-06-25T12:23:41.835Z,39.76
2018-06-25T12:26:10.828Z,39.28
2018-06-25T12:28:39.888Z,39.18
2018-06-25T12:31:08.872Z,39.80
2018-06-25T12:33:37.901Z,39.50
2018-06-25T12:36:07.848Z,38.23
2018-06-25T12:38:36.881Z,39.16
2018-06-25T12:41:05.922Z,38.32
2018-06-25T12:43:34.935Z,39.18
2018-06-25T12:46:03.981Z,39.41
2018-06-25T12:48:32.960Z,39.52
2018-06-25T12:51:02.060Z,39.83
2018-06-25T12:53:31.045Z,38.58
2018-06-25T12:56:00.112Z,38.58
2018-06-25T12:58:29.163Z,39.55
2018-06-25T13:00:58.252Z,37.42
2018-06-25T13:03:27.312Z,37.16
2018-06-25T13:05:56.396Z,37.18
2018-06-25T13:08:25.445Z,35.91
2018-06-25T13:10:55.168Z,35.39
2018-06-25T13:13:24.201Z,37.12
2018-06-25T13:15:53.197Z,36.21
2018-06-25T13:18:22.302Z,37.17
2018-06-25T13:20:51.445Z,37.95
2018-06-25T13:23:20.489Z,35.64
2018-06-25T13:25:49.544Z,37.10
2018-06-25T13:28:18.548Z,34.43
2018-06-25T13:30:47.565Z,34.40
2018-06-25T13:33:16.612Z,34.19
2018-06-25T13:35:45.609Z,33.02
2018-06-25T13:38:14.623Z,34.23
2018-06-25T13:40:43.686Z,32.65
2018-06-25T13:43:12.680Z,33.91
2018-06-25T13:45:41.823Z,30.83
2018-06-25T13:48:10.730Z,32.71
2018-06-25T13:50:39.712Z,31.93
2018-06-25T13:53:08.839Z,31.31
2018-06-25T13:55:37.904Z,30.54
2018-06-25T13:58:07.125Z,31.81
2018-06-25T14:00:36.109Z,30.89
2018-06-25T14:03:05.119Z,29.95
2018-06-25T14:05:34.096Z,30.86
2018-06-25T14:08:03.066Z,29.49
2018-06-25T14:10:32.072Z,28.81
2018-06-25T14:13:01.096Z,29.44
2018-06-25T14:15:30.169Z,31.31
2018-06-25T14:17:59.216Z,28.16
2018-06-25T14:20:28.268Z,28.34
2018-06-25T14:22:57.340Z,27.90
2018-06-25T14:25:26.413Z,29.63
2018-06-25T14:28:00.546Z,28.57
2018-06-25T14:30:34.484Z,29.58
2018-06-25T14:33:03.876Z,30.57
2018-06-25T14:35:33.145Z,32.02
2018-06-25T14:38:02.186Z,32.25
2018-06-25T14:40:31.261Z,31.07
2018-06-25T14:43:00.277Z,31.90
2018-06-25T14:45:29.294Z,30.58
2018-06-25T14:47:58.359Z,30.83
2018-06-25T14:50:27.386Z,29.98
2018-06-25T14:52:56.400Z,30.92
2018-06-25T14:55:25.391Z,30.46
2018-06-25T14:57:54.375Z,30.65
2018-06-25T15:00:23.369Z,30.93
2018-06-25T15:02:52.899Z,31.48
2018-06-25T15:05:22.271Z,32.69
2018-06-25T15:07:51.371Z,32.80
2018-06-25T15:10:20.484Z,32.08
2018-06-25T15:12:49.649Z,31.15
2018-06-25T15:15:18.667Z,31.79
2018-06-25T15:17:47.677Z,30.68
2018-06-25T15:20:16.684Z,31.45
2018-06-25T15:22:45.669Z,30.70
2018-06-25T15:25:14.636Z,30.86
2018-06-25T15:27:43.681Z,32.01
2018-06-25T15:30:12.644Z,32.31
2018-06-25T15:32:41.656Z,31.52
2018-06-25T15:35:10.628Z,32.21
2018-06-25T15:37:40.015Z,31.79
2018-06-25T15:40:09.033Z,32.84
2018-06-25T15:42:38.057Z,32.83
2018-06-25T15:45:07.257Z,33.10
2018-06-25T15:47:36.383Z,32.79
2018-06-25T15:50:05.504Z,34.77
2018-06-25T15:52:34.528Z,33.02
2018-06-25T15:55:03.614Z,33.24
2018-06-25T15:57:32.700Z,32.22
2018-06-25T16:00:01.810Z,32.89
2018-06-25T16:02:30.808Z,32.91
2018-06-25T16:04:59.825Z,33.74
2018-06-25T16:07:28.791Z,32.55
2018-06-25T16:09:57.832Z,31.11
2018-06-25T16:12:26.888Z,32.14
2018-06-25T16:14:56.085Z,34.06
2018-06-25T16:17:25.072Z,33.11
2018-06-25T16:19:54.081Z,32.20
2018-06-25T16:22:23.253Z,30.45
2018-06-25T16:24:52.227Z,32.05
2018-06-25T16:27:21.224Z,32.62
2018-06-25T16:29:50.341Z,32.68
2018-06-25T16:32:19.334Z,33.98
2018-06-25T16:34:48.287Z,34.59
2018-06-25T16:37:17.685Z,36.35
2018-06-25T16:39:46.728Z,38.48
2018-06-25T16:42:15.694Z,38.35
2018-06-25T16:44:44.751Z,39.15
2018-06-25T16:47:13.817Z,39.09
2018-06-25T16:49:42.820Z,40.31
2018-06-25T16:52:11.943Z,40.94
2018-06-25T16:54:40.964Z,41.55
2018-06-25T16:57:09.936Z,42.26
2018-06-25T16:59:39.029Z,44.00
2018-06-25T17:02:08.091Z,43.92
2018-06-25T17:04:37.065Z,43.63
2018-06-25T17:07:06.437Z,42.75
2018-06-25T17:09:35.416Z,44.15
2018-06-25T17:12:04.444Z,45.79
2018-06-25T17:14:33.538Z,46.07
2018-06-25T17:17:02.538Z,47.47
2018-06-25T17:19:31.763Z,47.55
2018-06-25T17:22:00.868Z,48.88
2018-06-25T17:24:29.824Z,48.31
2018-06-25T17:26:58.817Z,49.20
2018-06-25T17:29:27.924Z,48.88
2018-06-25T17:31:56.960Z,49.53
2018-06-25T17:34:26.004Z,49.24
2018-06-25T17:36:55.056Z,48.62
2018-06-25T17:39:24.144Z,49.52
2018-06-25T17:41:53.116Z,49.14
2018-06-25T17:44:22.291Z,48.60
2018-06-25T17:46:51.284Z,49.77
2018-06-25T17:49:20.309Z,49.46
2018-06-25T17:51:49.388Z,49.59
2018-06-25T17:54:18.412Z,49.79
2018-06-25T17:56:47.552Z,50.51
2018-06-25T17:59:16.583Z,50.82
2018-06-25T18:01:45.553Z,51.12
2018-06-25T18:04:14.508Z,51.80
2018-06-25T18:06:43.981Z,52.15
2018-06-25T18:09:13.293Z,52.70
2018-06-25T18:11:42.304Z,52.63
2018-06-25T18:14:11.370Z,53.26
2018-06-25T18:16:40.336Z,52.49
2018-06-25T18:19:09.363Z,52.77
2018-06-25T18:21:38.517Z,53.67
2018-06-25T18:24:07.556Z,54.27
2018-06-25T18:26:36.539Z,53.99
2018-06-25T18:29:05.584Z,54.17
2018-06-25T18:31:34.692Z,53.39
2018-06-25T18:34:03.797Z,54.68
2018-06-25T18:36:32.768Z,54.71
2018-06-25T18:39:01.744Z,54.91
2018-06-25T18:41:30.796Z,55.22
2018-06-25T18:43:59.900Z,55.19
2018-06-25T18:46:28.933Z,56.19
2018-06-25T18:48:57.887Z,55.55
2018-06-25T18:51:26.900Z,56.25
2018-06-25T18:53:56.163Z,56.52
2018-06-25T18:56:25.151Z,55.59
2018-06-25T18:58:54.187Z,55.98
2018-06-25T19:01:23.261Z,51.70
2018-06-25T19:03:52.288Z,55.46
2018-06-25T19:06:21.343Z,50.31
2018-06-25T19:08:50.362Z,53.34
2018-06-25T19:11:19.335Z,52.63
2018-06-25T19:13:48.472Z,52.49
2018-06-25T19:16:17.435Z,51.86
2018-06-25T19:18:46.488Z,51.98
2018-06-25T19:21:15.625Z,52.50
2018-06-25T19:23:44.721Z,54.80
2018-06-25T19:26:13.648Z,57.14
2018-06-25T19:28:42.770Z,57.56
2018-06-25T19:31:11.760Z,58.42
2018-06-25T19:33:40.795Z,57.75
2018-06-25T19:36:09.880Z,58.15
2018-06-25T19:38:38.936Z,57.57
2018-06-25T19:41:08.164Z,58.99
2018-06-25T19:43:37.128Z,60.00
2018-06-25T19:46:06.204Z,59.57
2018-06-25T19:48:35.172Z,60.35
2018-06-25T19:51:04.279Z,60.63
2018-06-25T19:53:33.309Z,60.84
2018-06-25T19:56:02.260Z,60.80
2018-06-25T19:58:31.257Z,61.29
2018-06-25T20:01:00.260Z,61.74
2018-06-25T20:03:29.285Z,61.60
2018-06-25T20:05:58.496Z,61.36
2018-06-25T20:08:27.528Z,60.99
2018-06-25T20:10:56.508Z,62.14
2018-06-25T20:13:25.556Z,61.94
2018-06-25T20:15:54.629Z,61.95
2018-06-25T20:18:23.692Z,62.48
2018-06-25T20:20:52.689Z,63.66
2018-06-25T20:23:21.739Z,63.65
2018-06-25T20:25:50.798Z,63.88
2018-06-25T20:28:20.073Z,64.12
2018-06-25T20:30:49.161Z,64.13
2018-06-25T20:33:18.220Z,64.41
2018-06-25T20:35:47.225Z,64.66
2018-06-25T20:38:16.226Z,64.45
2018-06-25T20:40:45.223Z,65.21
2018-06-25T20:43:14.328Z,65.59
2018-06-25T20:45:43.349Z,65.51
2018-06-25T20:48:12.325Z,65.34
2018-06-25T20:50:41.361Z,65.25
2018-06-25T20:53:10.440Z,66.29
2018-06-25T20:55:39.521Z,66.63
2018-06-25T20:58:08.625Z,66.82
2018-06-25T21:00:37.640Z,66.77
2018-06-25T21:03:06.712Z,67.62
2018-06-25T21:05:35.745Z,67.70
2018-06-25T21:08:05.018Z,67.56
2018-06-25T21:10:34.030Z,67.21
2018-06-25T21:13:03.085Z,67.34
2018-06-25T21:15:32.095Z,67.94
2018-06-25T21:18:01.092Z,67.93
2018-06-25T21:20:30.155Z,69.34
2018-06-25T21:22:59.211Z,70.75
2018-06-25T21:25:28.335Z,70.96
2018-06-25T21:27:57.368Z,71.59
2018-06-25T21:30:26.368Z,71.12
2018-06-25T21:32:55.462Z,71.59
2018-06-25T21:35:24.428Z,71.13
2018-06-25T21:37:53.376Z,70.47
2018-06-25T21:40:22.361Z,70.55
2018-06-25T21:42:51.317Z,71.19
2018-06-25T21:45:20.369Z,71.54
2018-06-25T21:47:49.400Z,72.25
2018-06-25T21:50:18.824Z,70.44
2018-06-25T21:52:47.889Z,71.52
2018-06-25T21:55:16.909Z,71.73
2018-06-25T21:57:45.947Z,71.62
2018-06-25T22:00:15.019Z,71.54
2018-06-25T22:02:44.053Z,71.80
2018-06-25T22:05:13.028Z,72.33
2018-06-25T22:07:42.037Z,71.86
2018-06-25T22:10:11.080Z,72.36
2018-06-25T22:12:40.067Z,72.35
2018-06-25T22:15:09.066Z,73.23
2018-06-25T22:17:38.047Z,73.73
2018-06-25T22:20:07.020Z,74.27
2018-06-25T22:22:36.133Z,74.00
2018-06-25T22:25:05.248Z,74.43
2018-06-25T22:27:34.220Z,74.63
2018-06-25T22:30:03.207Z,74.63
2018-06-25T22:32:32.208Z,74.63
2018-06-25T22:35:01.261Z,74.77
2018-06-25T22:37:30.219Z,75.08
2018-06-25T22:39:59.241Z,75.01
2018-06-25T22:42:30.218Z,74.75
2018-06-25T22:44:59.203Z,75.13
2018-06-25T22:47:28.237Z,75.20
2018-06-25T22:49:57.260Z,75.41
2018-06-25T22:52:26.368Z,75.44
2018-06-25T22:54:55.413Z,74.74
2018-06-25T22:57:24.405Z,74.42
2018-06-25T22:59:53.444Z,75.12
2018-06-25T23:02:22.496Z,74.96
2018-06-25T23:04:51.471Z,75.69
2018-06-25T23:07:20.581Z,76.12
2018-06-25T23:09:49.536Z,76.53
2018-06-25T23:12:18.885Z,76.40
2018-06-25T23:14:47.840Z,75.65
2018-06-25T23:17:16.827Z,75.91
2018-06-25T23:19:45.804Z,77.21
2018-06-25T23:22:14.865Z,78.09
2018-06-25T23:24:43.907Z,77.54
2018-06-25T23:27:12.884Z,78.64
2018-06-25T23:29:41.841Z,78.49
2018-06-25T23:32:10.891Z,78.80
2018-06-25T23:34:39.892Z,79.20
2018-06-25T23:37:08.997Z,80.37
2018-06-25T23:39:37.942Z,80.56
2018-06-25T23:42:06.943Z,80.73
2018-06-25T23:44:35.940Z,80.79
2018-06-25T23:47:04.991Z,81.88
2018-06-25T23:49:34.115Z,81.88
2018-06-25T23:52:03.156Z,82.08
2018-06-25T23:54:32.168Z,82.49
2018-06-25T23:57:01.156Z,83.07
2018-06-25T23:59:30.529Z,82.41
